< < Back
Terminal Aerodrome Forecast


Current Version              Previous Versions:   1  2  3  4  5  6  7  8  9  

Terminal Aerodrome Forecast

809
FTUS42 KTAE 312300
TAFVLD
TAF
KVLD 312324Z 0100/0124 18004KT P6SM BKN050
      TEMPO 0100/0104 3SM TSRA BKN030CB
     FM010400 18004KT P6SM SCT040 BKN250
      TEMPO 0111/0113 00000KT 3SM BR SCT002=



Latest METAR

428
SAUS70 KWBC 011100 RRJ
MTRVLD
METAR KVLD 011053Z 00000KT 10SM CLR 23/22 A3010 RMK AO2 SLP198
T02280217


USA.gov is the U.S. government's official web portal to all federal, state and local government web resources and services.